createdAt,value
2022-11-10T00:01:56.237Z,12.32
2022-11-10T00:04:22.995Z,12.26
2022-11-10T00:06:49.877Z,12.38
2022-11-10T00:09:16.757Z,12.29
2022-11-10T00:11:43.427Z,12.04
2022-11-10T00:14:28.704Z,11.99
2022-11-10T00:17:01.944Z,11.89
2022-11-10T00:19:28.844Z,11.80
2022-11-10T00:21:55.631Z,11.39
2022-11-10T00:24:22.854Z,11.62
2022-11-10T00:26:52.697Z,11.42
2022-11-10T00:29:19.476Z,11.68
2022-11-10T00:31:46.203Z,11.84
2022-11-10T00:34:15.949Z,11.89
2022-11-10T00:36:43.881Z,11.74
2022-11-10T00:39:11.387Z,11.80
2022-11-10T00:41:38.248Z,11.87
2022-11-10T00:44:04.938Z,11.54
2022-11-10T00:46:31.869Z,11.73
2022-11-10T00:48:58.565Z,11.83
2022-11-10T00:51:27.582Z,11.84
2022-11-10T00:53:55.009Z,11.75
2022-11-10T00:56:22.482Z,11.51
2022-11-10T00:58:49.331Z,11.68
2022-11-10T01:01:17.978Z,11.74
2022-11-10T01:03:45.031Z,11.72
2022-11-10T01:06:16.632Z,11.44
2022-11-10T01:08:43.718Z,11.56
2022-11-10T01:11:17.850Z,11.26
2022-11-10T01:13:45.470Z,11.41
2022-11-10T01:16:15.823Z,11.41
2022-11-10T01:18:43.334Z,11.19
2022-11-10T01:21:10.339Z,11.28
2022-11-10T01:23:37.163Z,11.11
2022-11-10T01:26:06.404Z,11.43
2022-11-10T01:28:34.374Z,11.44
2022-11-10T01:31:06.679Z,11.40
2022-11-10T01:33:34.195Z,11.41
2022-11-10T01:36:01.859Z,11.51
2022-11-10T01:38:30.692Z,11.48
2022-11-10T01:40:57.759Z,11.48
2022-11-10T01:43:25.233Z,11.54
2022-11-10T01:46:02.178Z,11.49
2022-11-10T01:48:40.099Z,11.31
2022-11-10T01:51:25.408Z,11.05
2022-11-10T01:54:03.456Z,11.07
2022-11-10T01:56:36.236Z,10.82
2022-11-10T01:59:08.977Z,11.21
2022-11-10T02:01:35.901Z,11.32
2022-11-10T02:04:06.345Z,11.44
2022-11-10T02:06:40.593Z,10.93
2022-11-10T02:09:07.571Z,10.79
2022-11-10T02:11:36.192Z,10.89
2022-11-10T02:14:03.383Z,11.02
2022-11-10T02:16:31.289Z,10.87
2022-11-10T02:18:57.936Z,10.94
2022-11-10T02:21:24.519Z,11.18
2022-11-10T02:23:54.587Z,11.26
2022-11-10T02:26:25.238Z,11.26
2022-11-10T02:28:51.922Z,11.32
2022-11-10T02:31:18.594Z,10.98
2022-11-10T02:33:45.215Z,11.35
2022-11-10T02:36:12.254Z,11.32
2022-11-10T02:38:39.829Z,11.32
2022-11-10T02:41:06.496Z,11.42
2022-11-10T02:43:33.584Z,11.37
2022-11-10T02:46:00.257Z,11.33
2022-11-10T02:48:26.865Z,11.32
2022-11-10T02:50:53.510Z,11.38
2022-11-10T02:53:20.420Z,11.39
2022-11-10T02:55:47.317Z,11.41
2022-11-10T02:58:14.031Z,11.55
2022-11-10T03:00:40.659Z,11.39
2022-11-10T03:03:07.282Z,11.52
2022-11-10T03:05:34.235Z,11.47
2022-11-10T03:08:03.034Z,11.52
2022-11-10T03:10:31.020Z,11.41
2022-11-10T03:12:59.822Z,11.41
2022-11-10T03:15:27.372Z,11.48
2022-11-10T03:17:54.393Z,11.56
2022-11-10T03:20:21.142Z,11.40
2022-11-10T03:22:48.051Z,11.38
2022-11-10T03:25:14.713Z,11.34
2022-11-10T03:27:41.387Z,11.34
2022-11-10T03:30:08.480Z,11.34
2022-11-10T03:32:35.172Z,11.36
2022-11-10T03:35:02.389Z,11.21
2022-11-10T03:37:29.005Z,11.29
2022-11-10T03:39:55.699Z,11.17
2022-11-10T03:42:22.369Z,11.15
2022-11-10T03:44:48.975Z,11.01
2022-11-10T03:47:15.622Z,10.90
2022-11-10T03:49:42.417Z,10.90
2022-11-10T03:52:09.056Z,10.87
2022-11-10T03:54:35.682Z,11.17
2022-11-10T03:57:02.319Z,11.32
2022-11-10T03:59:28.945Z,11.17
2022-11-10T04:01:55.627Z,11.28
2022-11-10T04:04:40.783Z,11.17
2022-11-10T04:07:30.986Z,11.02
2022-11-10T04:09:57.588Z,10.85
2022-11-10T04:12:42.737Z,10.46
2022-11-10T04:15:31.111Z,10.44
2022-11-10T04:18:16.535Z,10.37
2022-11-10T04:20:43.235Z,10.59
2022-11-10T04:23:28.293Z,10.28
2022-11-10T04:26:21.129Z,10.55
2022-11-10T04:28:49.971Z,10.86
2022-11-10T04:31:18.683Z,10.88
2022-11-10T04:33:46.303Z,10.91
2022-11-10T04:36:15.750Z,11.14
2022-11-10T04:38:42.829Z,11.00
2022-11-10T04:41:10.052Z,11.09
2022-11-10T04:43:37.196Z,10.66
2022-11-10T04:46:05.643Z,10.33
2022-11-10T04:48:33.301Z,10.40
2022-11-10T04:51:05.124Z,10.51
2022-11-10T04:53:32.486Z,10.34
2022-11-10T04:55:59.124Z,9.65
2022-11-10T04:58:25.725Z,9.96
2022-11-10T05:00:52.483Z,10.16
2022-11-10T05:03:19.255Z,10.36
2022-11-10T05:05:50.595Z,10.51
2022-11-10T05:08:17.300Z,10.60
2022-11-10T05:10:54.105Z,10.71
2022-11-10T05:13:20.965Z,10.41
2022-11-10T05:15:47.874Z,10.44
2022-11-10T05:18:17.483Z,10.20
2022-11-10T05:20:44.070Z,10.21
2022-11-10T05:23:38.264Z,10.24
2022-11-10T05:26:18.068Z,10.34
2022-11-10T05:28:45.881Z,10.56
2022-11-10T05:31:12.982Z,10.51
2022-11-10T05:33:43.161Z,10.62
2022-11-10T05:36:12.349Z,10.44
2022-11-10T05:38:43.168Z,10.53
2022-11-10T05:41:10.482Z,10.48
2022-11-10T05:43:37.284Z,10.63
2022-11-10T05:46:04.018Z,10.61
2022-11-10T05:48:30.671Z,10.60
2022-11-10T05:50:57.432Z,10.76
2022-11-10T05:53:24.455Z,10.87
2022-11-10T05:55:51.485Z,10.70
2022-11-10T05:58:18.100Z,10.71
2022-11-10T06:00:44.741Z,10.85
2022-11-10T06:03:17.229Z,10.83
2022-11-10T06:05:44.053Z,10.80
2022-11-10T06:08:11.019Z,10.74
2022-11-10T06:10:39.234Z,10.34
2022-11-10T06:13:06.038Z,10.31
2022-11-10T06:15:33.191Z,10.65
2022-11-10T06:17:59.824Z,10.43
2022-11-10T06:20:26.486Z,10.75
2022-11-10T06:23:09.391Z,10.83
2022-11-10T06:25:37.592Z,10.98
2022-11-10T06:28:05.320Z,10.93
2022-11-10T06:30:34.953Z,11.01
2022-11-10T06:33:03.501Z,11.16
2022-11-10T06:35:30.978Z,11.32
2022-11-10T06:38:05.930Z,11.34
2022-11-10T06:40:33.375Z,11.54
2022-11-10T06:43:01.697Z,11.58
2022-11-10T06:45:29.227Z,11.56
2022-11-10T06:48:00.738Z,11.50
2022-11-10T06:50:27.368Z,11.71
2022-11-10T06:52:55.724Z,11.75
2022-11-10T06:55:22.478Z,11.45
2022-11-10T06:57:49.198Z,11.09
2022-11-10T07:00:16.661Z,11.42
2022-11-10T07:02:43.275Z,11.60
2022-11-10T07:05:09.875Z,11.63
2022-11-10T07:07:36.474Z,11.69
2022-11-10T07:10:06.968Z,11.83
2022-11-10T07:12:34.331Z,11.91
2022-11-10T07:15:00.913Z,11.92
2022-11-10T07:17:27.470Z,11.98
2022-11-10T07:19:54.585Z,12.08
2022-11-10T07:22:21.213Z,10.99
2022-11-10T07:24:47.785Z,11.08
2022-11-10T07:27:14.350Z,11.53
2022-11-10T07:29:41.094Z,11.87
2022-11-10T07:32:07.678Z,12.15
2022-11-10T07:34:34.310Z,12.11
2022-11-10T07:37:01.099Z,12.02
2022-11-10T07:39:27.754Z,12.29
2022-11-10T07:41:54.317Z,12.01
2022-11-10T07:44:21.024Z,11.98
2022-11-10T07:46:47.629Z,12.14
2022-11-10T07:49:14.383Z,11.92
2022-11-10T07:51:42.798Z,12.03
2022-11-10T07:54:09.649Z,12.35
2022-11-10T07:56:36.262Z,12.27
2022-11-10T07:59:03.348Z,12.48
2022-11-10T08:01:30.114Z,12.48
2022-11-10T08:03:57.002Z,12.58
2022-11-10T08:06:23.644Z,12.36
2022-11-10T08:08:50.753Z,12.64
2022-11-10T08:11:17.440Z,12.18
2022-11-10T08:13:44.153Z,12.55
2022-11-10T08:16:10.902Z,12.68
2022-11-10T08:18:37.552Z,12.88
2022-11-10T08:21:05.720Z,12.56
2022-11-10T08:23:32.922Z,12.73
2022-11-10T08:26:01.212Z,12.42
2022-11-10T08:28:28.015Z,12.83
2022-11-10T08:30:55.303Z,12.19
2022-11-10T08:33:22.493Z,12.69
2022-11-10T08:35:51.740Z,12.99
2022-11-10T08:38:22.915Z,13.13
2022-11-10T08:40:50.214Z,13.13
2022-11-10T08:43:18.520Z,12.95
2022-11-10T08:45:46.139Z,13.26
2022-11-10T08:48:20.825Z,13.18
2022-11-10T08:50:49.642Z,13.16
2022-11-10T08:53:19.180Z,13.11
2022-11-10T08:55:46.110Z,13.53
2022-11-10T08:58:15.826Z,13.40
2022-11-10T09:00:42.877Z,13.65
2022-11-10T09:03:13.926Z,13.44
2022-11-10T09:05:41.377Z,13.76
2022-11-10T09:08:09.781Z,13.83
2022-11-10T09:10:41.698Z,13.72
2022-11-10T09:13:08.834Z,13.84
2022-11-10T09:15:36.088Z,13.95
2022-11-10T09:18:05.009Z,13.37
2022-11-10T09:20:33.391Z,13.26
2022-11-10T09:23:14.602Z,13.70
2022-11-10T09:25:42.299Z,13.80
2022-11-10T09:28:13.524Z,13.71
2022-11-10T09:30:40.954Z,13.48
2022-11-10T09:33:07.665Z,13.74
2022-11-10T09:35:34.465Z,13.78
2022-11-10T09:38:01.114Z,13.96
2022-11-10T09:40:50.974Z,14.03
2022-11-10T09:43:31.274Z,14.06
2022-11-10T09:46:02.403Z,14.13
2022-11-10T09:48:31.648Z,14.24
2022-11-10T09:51:15.698Z,14.14
2022-11-10T09:53:51.098Z,14.02
2022-11-10T09:56:22.888Z,14.11
2022-11-10T09:58:50.742Z,14.16
2022-11-10T10:01:43.144Z,14.22
2022-11-10T10:04:53.964Z,13.92
2022-11-10T10:07:38.074Z,14.24
2022-11-10T10:10:42.003Z,14.44
2022-11-10T10:13:34.764Z,14.56
2022-11-10T10:16:11.050Z,14.38
2022-11-10T10:18:56.064Z,14.56
2022-11-10T10:21:40.965Z,14.43
2022-11-10T10:24:22.257Z,14.44
2022-11-10T10:26:56.815Z,13.89
2022-11-10T10:29:37.254Z,14.37
2022-11-10T10:32:04.909Z,14.73
2022-11-10T10:34:34.652Z,14.90
2022-11-10T10:37:01.803Z,14.62
2022-11-10T10:39:31.482Z,14.57
2022-11-10T10:41:58.496Z,14.57
2022-11-10T10:44:25.143Z,14.21
2022-11-10T10:46:59.880Z,14.12
2022-11-10T10:49:31.452Z,14.47
2022-11-10T10:52:15.949Z,14.75
2022-11-10T10:54:42.992Z,15.02
2022-11-10T10:57:30.644Z,15.04
2022-11-10T11:00:23.477Z,15.11
2022-11-10T11:03:21.865Z,15.21
2022-11-10T11:06:14.316Z,14.90
2022-11-10T11:08:59.367Z,14.87
2022-11-10T11:11:32.716Z,15.00
2022-11-10T11:14:24.993Z,14.83
2022-11-10T11:17:03.088Z,15.02
2022-11-10T11:19:33.788Z,15.06
2022-11-10T11:22:27.730Z,15.47
2022-11-10T11:25:25.057Z,14.54
2022-11-10T11:27:54.268Z,15.01
2022-11-10T11:30:28.816Z,15.43
2022-11-10T11:33:13.412Z,15.60
2022-11-10T11:35:46.552Z,15.70
2022-11-10T11:38:16.723Z,15.37
2022-11-10T11:40:56.825Z,14.98
2022-11-10T11:43:54.235Z,15.07
2022-11-10T11:46:26.789Z,15.47
2022-11-10T11:49:18.239Z,15.47
2022-11-10T11:52:00.792Z,15.63
2022-11-10T11:54:53.696Z,15.49
2022-11-10T11:57:23.380Z,15.73
2022-11-10T12:00:02.601Z,16.01
2022-11-10T12:02:52.635Z,16.06
2022-11-10T12:05:32.104Z,15.94
2022-11-10T12:08:07.495Z,15.72
2022-11-10T12:10:41.913Z,16.10
2022-11-10T12:13:09.621Z,16.13
2022-11-10T12:15:45.222Z,16.12
2022-11-10T12:18:56.179Z,16.28
2022-11-10T12:21:36.105Z,15.90
2022-11-10T12:24:37.823Z,16.03
2022-11-10T12:27:10.442Z,15.93
2022-11-10T12:29:43.537Z,16.16
2022-11-10T12:32:52.825Z,16.27
2022-11-10T12:35:40.362Z,16.28
2022-11-10T12:38:44.424Z,15.97
2022-11-10T12:41:20.381Z,15.99
2022-11-10T12:44:31.381Z,16.15
2022-11-10T12:47:01.730Z,16.27
2022-11-10T12:49:37.801Z,16.34
2022-11-10T12:52:28.952Z,16.33
2022-11-10T12:54:55.622Z,16.28
2022-11-10T12:57:25.766Z,16.40
2022-11-10T13:00:00.682Z,16.40
2022-11-10T13:02:40.369Z,16.34
2022-11-10T13:05:36.043Z,16.36
2022-11-10T13:08:34.654Z,16.31
2022-11-10T13:11:13.077Z,16.27
2022-11-10T13:13:44.770Z,16.35
2022-11-10T13:16:31.419Z,16.56
2022-11-10T13:18:58.220Z,16.45
2022-11-10T13:21:52.790Z,16.34
2022-11-10T13:24:25.168Z,16.45
2022-11-10T13:26:55.661Z,16.60
2022-11-10T13:29:37.105Z,16.51
2022-11-10T13:32:15.865Z,16.53
2022-11-10T13:34:47.658Z,16.62
2022-11-10T13:37:42.711Z,16.49
2022-11-10T13:40:24.501Z,16.47
2022-11-10T13:42:56.858Z,16.57
2022-11-10T13:45:43.426Z,16.34
2022-11-10T13:48:13.048Z,16.47
2022-11-10T13:51:39.414Z,16.28
2022-11-10T13:54:43.739Z,16.38
2022-11-10T13:57:41.268Z,16.28
2022-11-10T14:00:32.435Z,16.26
2022-11-10T14:03:01.381Z,16.26
2022-11-10T14:05:42.402Z,16.23
2022-11-10T14:08:19.136Z,16.16
2022-11-10T14:11:00.914Z,16.12
2022-11-10T14:13:49.908Z,16.00
2022-11-10T14:16:23.292Z,15.98
2022-11-10T14:19:34.133Z,15.87
2022-11-10T14:22:21.906Z,15.85
2022-11-10T14:24:56.707Z,15.91
2022-11-10T14:27:30.428Z,15.89
2022-11-10T14:30:20.773Z,15.85
2022-11-10T14:33:09.190Z,15.75
2022-11-10T14:35:55.501Z,15.76
2022-11-10T14:38:37.318Z,15.73
2022-11-10T14:41:06.715Z,15.81
2022-11-10T14:43:34.740Z,15.75
2022-11-10T14:46:02.777Z,15.70
2022-11-10T14:48:32.989Z,15.70
2022-11-10T14:51:15.705Z,15.61
2022-11-10T14:53:50.863Z,15.70
2022-11-10T14:56:21.505Z,15.63
2022-11-10T14:58:49.713Z,15.67
2022-11-10T15:01:38.048Z,15.37
2022-11-10T15:04:07.682Z,15.42
2022-11-10T15:06:34.941Z,15.42
2022-11-10T15:09:16.915Z,15.20
2022-11-10T15:12:05.565Z,15.20
2022-11-10T15:14:39.439Z,15.19
2022-11-10T15:17:12.031Z,15.20
2022-11-10T15:19:55.767Z,15.29
2022-11-10T15:22:32.949Z,15.20
2022-11-10T15:25:01.010Z,15.30
2022-11-10T15:27:32.323Z,15.08
2022-11-10T15:30:00.995Z,14.96
2022-11-10T15:32:35.445Z,14.81
2022-11-10T15:35:27.624Z,14.60
2022-11-10T15:38:21.358Z,14.47
2022-11-10T15:40:52.574Z,14.54
2022-11-10T15:43:19.124Z,14.53
2022-11-10T15:45:55.410Z,14.46
2022-11-10T15:48:23.281Z,14.46
2022-11-10T15:50:54.664Z,14.44
2022-11-10T15:53:32.764Z,14.22
2022-11-10T15:55:59.679Z,14.21
2022-11-10T15:58:28.040Z,14.27
2022-11-10T16:00:54.836Z,14.21
2022-11-10T16:03:23.539Z,14.17
2022-11-10T16:05:50.192Z,14.19
2022-11-10T16:08:20.342Z,14.02
2022-11-10T16:10:53.597Z,13.98
2022-11-10T16:13:29.052Z,13.97
2022-11-10T16:15:56.370Z,13.97
2022-11-10T16:18:26.168Z,14.02
2022-11-10T16:20:53.219Z,13.99
2022-11-10T16:23:20.305Z,14.00
2022-11-10T16:25:50.187Z,14.00
2022-11-10T16:28:28.120Z,13.91
2022-11-10T16:30:55.368Z,13.97
2022-11-10T16:33:24.675Z,13.89
2022-11-10T16:35:52.989Z,13.83
2022-11-10T16:38:21.951Z,13.86
2022-11-10T16:41:00.514Z,13.92
2022-11-10T16:43:28.225Z,13.88
2022-11-10T16:45:57.653Z,13.81
2022-11-10T16:48:36.349Z,13.81
2022-11-10T16:51:03.751Z,13.68
2022-11-10T16:53:34.399Z,13.75
2022-11-10T16:56:00.977Z,13.72
2022-11-10T16:58:28.223Z,13.68
2022-11-10T17:01:00.155Z,13.61
2022-11-10T17:03:35.637Z,13.61
2022-11-10T17:06:02.771Z,13.69
2022-11-10T17:08:31.483Z,13.68
2022-11-10T17:10:58.126Z,13.67
2022-11-10T17:13:25.942Z,13.62
2022-11-10T17:15:55.708Z,13.66
2022-11-10T17:18:24.833Z,13.60
2022-11-10T17:20:52.597Z,13.61
2022-11-10T17:23:22.710Z,13.62
2022-11-10T17:25:51.159Z,13.66
2022-11-10T17:28:19.101Z,13.53
2022-11-10T17:30:46.421Z,13.64
2022-11-10T17:33:13.318Z,13.53
2022-11-10T17:35:48.006Z,13.46
2022-11-10T17:38:24.534Z,13.44
2022-11-10T17:40:52.689Z,13.55
2022-11-10T17:43:19.489Z,13.62
2022-11-10T17:45:46.307Z,13.48
2022-11-10T17:48:13.564Z,13.46
2022-11-10T17:50:42.114Z,13.47
2022-11-10T17:53:30.852Z,13.35
2022-11-10T17:56:11.740Z,13.48
2022-11-10T17:58:38.610Z,13.50
2022-11-10T18:01:18.233Z,13.38
2022-11-10T18:03:46.333Z,13.48
2022-11-10T18:06:43.209Z,13.50
2022-11-10T18:09:09.855Z,13.33
2022-11-10T18:11:36.452Z,13.39
2022-11-10T18:14:03.195Z,13.35
2022-11-10T18:16:30.473Z,13.26
2022-11-10T18:18:58.746Z,13.36
2022-11-10T18:21:25.371Z,13.32
2022-11-10T18:23:54.873Z,13.32
2022-11-10T18:26:21.464Z,13.32
2022-11-10T18:28:50.110Z,13.29
2022-11-10T18:31:18.353Z,13.39
2022-11-10T18:33:47.276Z,13.31
2022-11-10T18:36:13.967Z,13.34
2022-11-10T18:38:40.598Z,13.32
2022-11-10T18:41:25.777Z,13.35
2022-11-10T18:43:52.749Z,13.26
2022-11-10T18:46:19.482Z,13.33
2022-11-10T18:48:46.634Z,13.27
2022-11-10T18:51:13.770Z,13.24
2022-11-10T18:53:40.525Z,13.24
2022-11-10T18:56:07.510Z,13.30
2022-11-10T18:58:34.195Z,13.31
2022-11-10T19:01:33.782Z,13.30
2022-11-10T19:04:00.455Z,13.33
2022-11-10T19:06:27.163Z,13.33
2022-11-10T19:08:55.767Z,13.34
2022-11-10T19:11:22.796Z,13.39
2022-11-10T19:13:50.173Z,13.42
2022-11-10T19:16:18.652Z,13.44
2022-11-10T19:18:46.286Z,13.40
2022-11-10T19:21:18.394Z,13.41
2022-11-10T19:23:45.453Z,13.41
2022-11-10T19:26:20.883Z,13.36
2022-11-10T19:28:49.145Z,13.35
2022-11-10T19:31:18.376Z,13.23
2022-11-10T19:33:46.388Z,13.33
2022-11-10T19:36:16.050Z,13.17
2022-11-10T19:38:43.084Z,13.25
2022-11-10T19:41:30.111Z,13.16
2022-11-10T19:43:57.287Z,13.07
2022-11-10T19:46:28.922Z,13.11
2022-11-10T19:48:56.801Z,13.15
2022-11-10T19:51:24.858Z,13.22
2022-11-10T19:54:06.255Z,13.06
2022-11-10T19:56:36.266Z,13.09
2022-11-10T19:59:04.192Z,13.04
2022-11-10T20:01:33.465Z,13.05
2022-11-10T20:04:01.178Z,12.99
2022-11-10T20:06:27.953Z,12.97
2022-11-10T20:08:55.319Z,12.87
2022-11-10T20:11:25.802Z,13.01
2022-11-10T20:13:55.793Z,13.00
2022-11-10T20:16:22.967Z,12.98
2022-11-10T20:18:49.935Z,12.86
2022-11-10T20:21:20.228Z,12.86
2022-11-10T20:23:52.328Z,12.96
2022-11-10T20:26:21.334Z,12.98
2022-11-10T20:28:48.142Z,12.96
2022-11-10T20:31:21.795Z,12.95
2022-11-10T20:33:49.249Z,12.95
2022-11-10T20:36:20.915Z,12.88
2022-11-10T20:38:49.006Z,12.98
2022-11-10T20:44:11.043Z,12.95
2022-11-10T20:46:54.005Z,12.96
2022-11-10T20:49:21.342Z,12.48
2022-11-10T20:51:47.936Z,12.20
2022-11-10T20:54:15.152Z,12.27
2022-11-10T20:56:41.802Z,12.28
2022-11-10T20:59:08.410Z,12.45
2022-11-10T21:01:35.497Z,12.49
2022-11-10T21:04:02.647Z,12.59
2022-11-10T21:06:29.376Z,12.78
2022-11-10T21:08:57.025Z,12.90
2022-11-10T21:11:45.421Z,12.87
2022-11-10T21:14:12.042Z,12.78
2022-11-10T21:16:38.711Z,12.90
2022-11-10T21:21:55.845Z,12.86
2022-11-10T21:24:23.620Z,12.71
2022-11-10T21:26:53.710Z,12.76
2022-11-10T21:29:20.548Z,12.87
2022-11-10T21:31:47.316Z,12.80
2022-11-10T21:34:14.269Z,12.75
2022-11-10T21:36:47.062Z,12.79
2022-11-10T21:39:14.107Z,12.80
2022-11-10T21:41:40.765Z,12.72
2022-11-10T21:44:07.440Z,12.63
2022-11-10T21:46:35.966Z,12.55
2022-11-10T21:49:07.419Z,12.68
2022-11-10T21:51:35.161Z,12.64
2022-11-10T21:54:01.813Z,12.73
2022-11-10T21:56:28.393Z,12.81
2022-11-10T21:58:54.946Z,12.74
2022-11-10T22:01:22.350Z,12.80
2022-11-10T22:03:49.157Z,12.72
2022-11-10T22:06:17.870Z,12.63
2022-11-10T22:08:46.798Z,12.64
2022-11-10T22:11:37.930Z,12.56
2022-11-10T22:14:31.405Z,12.72
2022-11-10T22:17:18.092Z,12.93
2022-11-10T22:19:45.493Z,13.07
2022-11-10T22:22:14.411Z,13.08
2022-11-10T22:24:41.357Z,13.27
2022-11-10T22:27:08.300Z,13.13
2022-11-10T22:29:34.986Z,13.15
2022-11-10T22:32:04.077Z,13.20
2022-11-10T22:34:30.706Z,13.20
2022-11-10T22:36:59.568Z,13.39
2022-11-10T22:39:46.469Z,13.24
2022-11-10T22:42:31.898Z,12.96
2022-11-10T22:44:58.821Z,13.01
2022-11-10T22:47:25.412Z,13.17
2022-11-10T22:49:51.984Z,13.25
2022-11-10T22:52:18.568Z,13.15
2022-11-10T22:54:45.232Z,13.41
2022-11-10T22:57:11.833Z,13.49
2022-11-10T22:59:38.603Z,13.56
2022-11-10T23:02:08.718Z,13.36
2022-11-10T23:04:35.422Z,13.55
2022-11-10T23:07:02.056Z,13.65
2022-11-10T23:09:28.713Z,12.69
2022-11-10T23:11:55.329Z,13.08
2022-11-10T23:14:21.948Z,13.25
2022-11-10T23:16:48.517Z,13.39
2022-11-10T23:19:15.111Z,13.63
2022-11-10T23:21:41.731Z,13.56
2022-11-10T23:24:08.683Z,13.47
2022-11-10T23:26:35.361Z,13.56
2022-11-10T23:29:01.952Z,13.54
2022-11-10T23:31:28.732Z,13.58
2022-11-10T23:33:57.729Z,12.80
2022-11-10T23:36:26.310Z,12.03
2022-11-10T23:38:54.817Z,12.96
2022-11-10T23:41:28.665Z,13.34
2022-11-10T23:43:55.381Z,13.24
2022-11-10T23:46:22.006Z,13.40
2022-11-10T23:48:48.649Z,13.26
2022-11-10T23:51:16.646Z,13.50
2022-11-10T23:53:43.351Z,13.78
2022-11-10T23:56:13.864Z,13.14
2022-11-10T23:58:41.343Z,13.39
